首页
METAR-TAF:

METAR-TAF

机场 :

Shaw Air Force Base

Sumter, 南卡罗来纳州, 美国

纬度: 33-58N, 经度: 080-29W, 海拔: 74米

当前天气观测

该预报发布于15分钟前的01:56 UTC
风速6节,风向
温度 26°C
湿度 79%
气压 1015 hPa
能見度: 16.1公里
少量云层高于16000英尺

METAR: KSSC 220156Z AUTO 17006KT 10SM FEW160 26/22 A2998 RMK AO2 SLP152 T02610223 TSNO $

时间: 22:11 (02:11 UTC)

预报

该预报发布于1小时和36分钟前的00:35 UTC
预报有效从22日的 00点(UTC)到 23日的 05点(UTC)
风速9节,风向南转西南
能见度10公里或以上
散云层高于2500英尺
多云层高于25000英尺
成为
从 22日的 03点(UTC)到 22日的 04点(UTC)
风速6节,风向西南
能见度10公里或以上
多云层高于2500英尺
阴天层高于25000英尺
成为
从 22日的 06点(UTC)到 22日的 07点(UTC)
风速3节,风向西转西南
能见度10公里或以上
阴天层高于1000英尺
成为
从 22日的 08点(UTC)到 22日的 09点(UTC)
风速3节,风向西
能见度10公里或以上
阴天层高于700英尺
成为
从 22日的 14点(UTC)到 22日的 15点(UTC)
风速10节,风向西,有时为15节阵风
能见度10公里或以上
散云层高于2500英尺
多云层高于4500英尺
多云层高于10000英尺

TAF: KSSC 220035Z 2200/2305 20009KT 9999 SCT025 BKN250 QNH2990INS BECMG 2203/2204 22006KT 9999 BKN025 OVC250 QNH2992INS BECMG 2206/2207 24003KT 9999 OVC010 QNH2993INS BECMG 2208/2209 26003KT 9999 OVC007 QNH2994INS BECMG 2214/2215 27010G15KT 9999 SCT025 BKN045 BKN100 QNH2987INS TX31/2219Z TN22/2211Z

超过4000个机场的气象观测和天气预报(METAR&TAF报告)。

可查询的气象台以黄色和红色小点在地图上表示。

将鼠标移到小点上方,可查看气象台名称。

然后点击查看天气观测和预报。

如需切换地图:点击带黑十字的绿色按钮放大地图;点击带横线的绿色按钮缩小地图;或者点击绿色箭头查看邻近地区的地图。


METAR-TAF: